Main page
METAR-TAF:

METAR-TAF

Airports :

Astor Piazzolla International Airport

Mar del Plata, Argentina

latitude: 37-56S, longitude: 057-35W, elevation: 18 m

Current weather observation

The report was made 25 minutes ago, at 17:00 UTC
Wind 10 kt from the West
Temperature 18°C
Humidity 45%
Pressure 1016 hPa
Visibility 10 km or more
no clouds below 1500 m and no cumulonimbus

METAR: SAZM 151700Z 27010KT CAVOK 18/06 Q1016

Time: 14:25 (17:25 UTC)

Forecast

The report was made 6 hours and 25 minutes ago, at 11:00 UTC
Forecast valid from 15 at 12 UTC to 16 at 12 UTC
Wind 5 kt from the West
Visibility 10 km or more
no clouds below 1500 m and no cumulonimbus
Becoming
from 15 at 22 UTC to 15 at 24 UTC
Wind 3 kt from variable directions
Becoming
from 16 at 05 UTC to 16 at 07 UTC
Wind 5 kt from the Northwest

TAF: SAZM 151100Z 1512/1612 27005KT CAVOK TX16/1518Z TN06/1610Z BECMG 1522/1524 VRB03KT BECMG 1605/1607 32005KT

Weather observations and forecasts of more than 4000 airports (METAR and TAF reports).

The available stations are represented by yellow and red dots on the map.

Hover mouse over dot to see the name of the station.

Then click to see weather observations and forecasts.

To change the map : click on the green buttons with a black cross to zoom in, on the green button with a dash to zoom out, or on the green arrows for adjacent maps.


METAR-TAF: